createdAt,value
2022-12-15T00:38:06.497Z,-7.15
2022-12-15T00:39:07.554Z,-7.13
2022-12-15T00:40:07.339Z,-7.12
2022-12-15T00:41:07.374Z,-7.10
2022-12-15T00:42:07.366Z,-7.08
2022-12-15T00:43:07.321Z,-7.06
2022-12-15T00:44:07.368Z,-7.03
2022-12-15T00:45:07.412Z,-7.08
2022-12-15T00:46:07.412Z,-7.05
2022-12-15T00:47:07.288Z,-7.09
2022-12-15T00:48:07.271Z,-7.10
2022-12-15T00:49:07.263Z,-7.06
2022-12-15T00:50:07.368Z,-7.12
2022-12-15T00:51:07.379Z,-7.10
2022-12-15T00:52:07.271Z,-7.10
2022-12-15T00:53:07.303Z,-7.10
2022-12-15T00:54:07.332Z,-7.13
2022-12-15T00:55:07.219Z,-7.13
2022-12-15T00:56:07.110Z,-7.12
2022-12-15T00:57:07.212Z,-7.12
2022-12-15T00:58:07.121Z,-7.13
2022-12-15T00:59:07.170Z,-7.12
2022-12-15T01:00:07.171Z,-7.09
2022-12-15T01:01:07.210Z,-7.10
2022-12-15T01:02:07.301Z,-7.10
2022-12-15T01:03:07.270Z,-7.08
2022-12-15T01:04:07.314Z,-7.08
2022-12-15T01:05:07.015Z,-7.05
2022-12-15T01:06:07.000Z,-7.06
2022-12-15T01:07:07.036Z,-7.08
2022-12-15T01:08:07.077Z,-7.03
2022-12-15T01:09:07.008Z,-7.06
2022-12-15T01:10:06.927Z,-7.02
2022-12-15T01:11:06.928Z,-7.06
2022-12-15T01:12:07.038Z,-7.08
2022-12-15T01:13:06.912Z,-7.05
2022-12-15T01:14:06.864Z,-7.05
2022-12-15T01:15:06.877Z,-7.03
2022-12-15T01:16:06.898Z,-7.05
2022-12-15T01:17:06.844Z,-7.06
2022-12-15T01:18:06.831Z,-7.06
2022-12-15T01:19:06.832Z,-7.03
2022-12-15T01:20:06.802Z,-7.02
2022-12-15T01:21:06.836Z,-7.05
2022-12-15T01:22:06.768Z,-7.02
2022-12-15T01:23:06.771Z,-7.05
2022-12-15T01:24:06.737Z,-7.02
2022-12-15T01:25:06.795Z,-6.99
2022-12-15T01:26:06.741Z,-7.00
2022-12-15T01:27:06.704Z,-7.02
2022-12-15T01:28:06.709Z,-7.03
2022-12-15T01:29:06.684Z,-7.08
2022-12-15T01:30:06.657Z,-7.09
2022-12-15T01:31:06.701Z,-7.06
2022-12-15T01:32:06.644Z,-7.09
2022-12-15T01:33:06.638Z,-7.06
2022-12-15T01:34:06.621Z,-7.08
2022-12-15T01:35:06.607Z,-7.13
2022-12-15T01:36:06.599Z,-7.13
2022-12-15T01:37:06.597Z,-7.16
2022-12-15T01:38:06.576Z,-7.19
2022-12-15T01:39:06.537Z,-7.21
2022-12-15T01:40:06.547Z,-7.21
2022-12-15T01:41:06.537Z,-7.27
2022-12-15T01:42:06.533Z,-7.27
2022-12-15T01:43:06.604Z,-7.24
2022-12-15T01:44:06.487Z,-7.27
2022-12-15T01:45:06.504Z,-7.27
2022-12-15T01:46:06.451Z,-7.27
2022-12-15T01:47:06.533Z,-7.23
2022-12-15T01:48:06.449Z,-7.21
2022-12-15T01:49:06.458Z,-7.21
2022-12-15T01:50:06.455Z,-7.24
2022-12-15T01:51:06.392Z,-7.26
2022-12-15T01:52:06.386Z,-7.29
2022-12-15T01:53:06.454Z,-7.30
2022-12-15T01:54:06.389Z,-7.31
2022-12-15T01:55:06.359Z,-7.30
2022-12-15T01:56:06.320Z,-7.31
2022-12-15T01:57:06.345Z,-7.34
2022-12-15T01:58:06.332Z,-7.33
2022-12-15T01:59:06.303Z,-7.31
2022-12-15T02:00:06.302Z,-7.33
2022-12-15T02:01:06.338Z,-7.31
2022-12-15T02:02:06.403Z,-7.31
2022-12-15T02:03:06.387Z,-7.30
2022-12-15T02:04:06.305Z,-7.29
2022-12-15T02:05:06.234Z,-7.30
2022-12-15T02:06:06.210Z,-7.29
2022-12-15T02:07:06.208Z,-7.27
2022-12-15T02:08:06.177Z,-7.27
2022-12-15T02:09:06.294Z,-7.26
2022-12-15T02:10:06.204Z,-7.27
2022-12-15T02:11:06.181Z,-7.23
2022-12-15T02:12:06.326Z,-7.24
2022-12-15T02:13:06.153Z,-7.23
2022-12-15T02:14:06.105Z,-7.23
2022-12-15T02:15:06.122Z,-7.24
2022-12-15T02:16:06.175Z,-7.23
2022-12-15T02:17:06.093Z,-7.24
2022-12-15T02:18:06.096Z,-7.21
2022-12-15T02:19:06.054Z,-7.26
2022-12-15T02:20:06.065Z,-7.26
2022-12-15T02:21:06.022Z,-7.24
2022-12-15T02:22:05.991Z,-7.26
2022-12-15T02:23:06.044Z,-7.26
2022-12-15T02:24:05.998Z,-7.26
2022-12-15T02:25:06.048Z,-7.23
2022-12-15T02:26:05.985Z,-7.23
2022-12-15T02:27:05.933Z,-7.21
2022-12-15T02:28:05.955Z,-7.19
2022-12-15T02:29:06.012Z,-7.21
2022-12-15T02:30:05.929Z,-7.16
2022-12-15T02:31:05.954Z,-7.19
2022-12-15T02:32:06.017Z,-7.20
2022-12-15T02:33:05.950Z,-7.20
2022-12-15T02:34:05.839Z,-7.20
2022-12-15T02:35:05.852Z,-7.21
2022-12-15T02:36:05.804Z,-7.20
2022-12-15T02:37:05.850Z,-7.20
2022-12-15T02:38:05.777Z,-7.20
2022-12-15T02:39:05.822Z,-7.19
2022-12-15T02:40:05.780Z,-7.21
2022-12-15T02:41:05.757Z,-7.15
2022-12-15T02:42:05.766Z,-7.21
2022-12-15T02:43:05.770Z,-7.19
2022-12-15T02:44:05.766Z,-7.20
2022-12-15T02:45:05.737Z,-7.21
2022-12-15T02:46:05.861Z,-7.21
2022-12-15T02:47:05.680Z,-7.21
2022-12-15T02:48:05.725Z,-7.16
2022-12-15T02:49:05.685Z,-7.19
2022-12-15T02:50:05.734Z,-7.19
2022-12-15T02:51:05.637Z,-7.19
2022-12-15T02:52:05.655Z,-7.15
2022-12-15T02:53:05.611Z,-7.16
2022-12-15T02:54:05.587Z,-7.16
2022-12-15T02:55:05.557Z,-7.15
2022-12-15T02:56:05.582Z,-7.13
2022-12-15T02:57:05.560Z,-7.12
2022-12-15T02:58:05.599Z,-7.10
2022-12-15T02:59:05.528Z,-7.09
2022-12-15T03:00:05.503Z,-7.02
2022-12-15T03:01:05.536Z,-7.03
2022-12-15T03:02:05.696Z,-7.02
2022-12-15T03:03:05.604Z,-7.02
2022-12-15T03:04:05.461Z,-7.02
2022-12-15T03:05:05.434Z,-7.03
2022-12-15T03:06:05.467Z,-7.02
2022-12-15T03:07:05.414Z,-7.02
2022-12-15T03:08:05.472Z,-7.00
2022-12-15T03:09:05.379Z,-6.97
2022-12-15T03:10:05.373Z,-6.97
2022-12-15T03:11:05.380Z,-6.95
2022-12-15T03:12:05.359Z,-6.92
2022-12-15T03:13:05.369Z,-6.91
2022-12-15T03:14:05.395Z,-6.92
2022-12-15T03:15:05.309Z,-6.90
2022-12-15T03:16:05.360Z,-6.90
2022-12-15T03:17:05.289Z,-6.90
2022-12-15T03:18:05.266Z,-6.87
2022-12-15T03:19:05.273Z,-6.87
2022-12-15T03:20:05.243Z,-6.84
2022-12-15T03:21:05.219Z,-6.87
2022-12-15T03:23:37.537Z,-6.88
2022-12-15T03:24:38.488Z,-6.91
2022-12-15T03:25:38.459Z,-6.94
2022-12-15T03:26:38.462Z,-6.97
2022-12-15T03:27:38.449Z,-6.99
2022-12-15T03:28:38.430Z,-6.95
2022-12-15T03:29:38.427Z,-6.94
2022-12-15T03:30:38.410Z,-6.94
2022-12-15T03:31:38.475Z,-6.87
2022-12-15T03:32:38.379Z,-6.76
2022-12-15T03:33:38.389Z,-6.71
2022-12-15T03:34:38.356Z,-6.70
2022-12-15T03:35:38.356Z,-6.67
2022-12-15T03:36:38.347Z,-6.64
2022-12-15T03:37:38.319Z,-6.61
2022-12-15T03:38:38.308Z,-6.63
2022-12-15T03:39:38.306Z,-6.61
2022-12-15T03:40:38.329Z,-6.61
2022-12-15T03:41:38.317Z,-6.59
2022-12-15T03:42:38.321Z,-6.61
2022-12-15T03:43:38.329Z,-6.59
2022-12-15T03:44:38.235Z,-6.59
2022-12-15T03:45:38.272Z,-6.63
2022-12-15T03:46:38.193Z,-6.64
2022-12-15T03:47:38.182Z,-6.63
2022-12-15T03:48:38.200Z,-6.66
2022-12-15T03:49:39.130Z,-6.61
2022-12-15T03:50:38.174Z,-6.63
2022-12-15T03:51:38.144Z,-6.64
2022-12-15T03:52:38.156Z,-6.64
2022-12-15T03:53:52.416Z,-6.64
2022-12-15T03:54:38.097Z,-6.61
2022-12-15T03:55:38.209Z,-6.66
2022-12-15T03:56:38.079Z,-6.67
2022-12-15T03:57:38.081Z,-6.70
2022-12-15T03:58:38.058Z,-6.73
2022-12-15T03:59:38.035Z,-6.73
2022-12-15T04:00:38.036Z,-6.70
2022-12-15T04:01:38.109Z,-6.74
2022-12-15T04:02:38.117Z,-6.74
2022-12-15T04:03:38.086Z,-6.73
2022-12-15T04:04:37.981Z,-6.77
2022-12-15T04:05:37.991Z,-6.82
2022-12-15T04:06:37.961Z,-6.85
2022-12-15T04:07:37.986Z,-6.85
2022-12-15T04:08:37.943Z,-6.87
2022-12-15T04:09:37.946Z,-6.90
2022-12-15T04:10:37.912Z,-6.90
2022-12-15T04:11:37.914Z,-6.90
2022-12-15T04:12:37.872Z,-6.90
2022-12-15T04:13:37.896Z,-6.92
2022-12-15T04:14:37.930Z,-6.92
2022-12-15T04:15:37.927Z,-6.91
2022-12-15T04:16:37.817Z,-6.92
2022-12-15T04:17:37.827Z,-6.94
2022-12-15T04:18:37.806Z,-6.95
2022-12-15T04:19:37.785Z,-7.00
2022-12-15T04:20:37.764Z,-7.00
2022-12-15T04:21:37.758Z,-7.00
2022-12-15T04:22:37.790Z,-7.02
2022-12-15T04:23:37.745Z,-7.03
2022-12-15T04:24:37.745Z,-7.05
2022-12-15T04:25:37.708Z,-7.08
2022-12-15T04:26:37.683Z,-7.08
2022-12-15T04:27:37.698Z,-7.08
2022-12-15T04:28:37.679Z,-7.08
2022-12-15T04:29:37.674Z,-7.05
2022-12-15T04:30:37.683Z,-7.06
2022-12-15T04:31:37.628Z,-7.05
2022-12-15T04:32:37.641Z,-7.05
2022-12-15T04:33:38.300Z,-7.05
2022-12-15T04:34:37.634Z,-7.00
2022-12-15T04:35:37.577Z,-6.97
2022-12-15T04:36:37.606Z,-6.97
2022-12-15T04:37:37.583Z,-6.99
2022-12-15T04:38:37.583Z,-6.97
2022-12-15T04:39:37.591Z,-6.94
2022-12-15T04:40:37.505Z,-6.95
2022-12-15T04:41:37.573Z,-6.95
2022-12-15T04:42:37.508Z,-6.95
2022-12-15T04:43:37.502Z,-6.95
2022-12-15T04:44:37.473Z,-6.94
2022-12-15T04:45:37.506Z,-6.94
2022-12-15T04:46:37.513Z,-6.95
2022-12-15T04:47:37.431Z,-6.95
2022-12-15T04:48:37.518Z,-6.94
2022-12-15T04:49:37.412Z,-6.95
2022-12-15T04:50:37.385Z,-6.94
2022-12-15T04:51:37.422Z,-6.94
2022-12-15T04:52:37.363Z,-6.92
2022-12-15T04:53:37.399Z,-6.95
2022-12-15T04:54:37.335Z,-6.95
2022-12-15T04:55:37.347Z,-6.97
2022-12-15T04:56:37.298Z,-6.95
2022-12-15T04:57:37.300Z,-6.97
2022-12-15T04:58:37.287Z,-6.95
2022-12-15T04:59:37.269Z,-7.00
2022-12-15T05:00:37.243Z,-7.03
2022-12-15T05:01:37.332Z,-7.05
2022-12-15T05:02:37.312Z,-7.06
2022-12-15T05:03:37.452Z,-7.03
2022-12-15T05:04:37.271Z,-7.05
2022-12-15T05:05:37.206Z,-7.05
2022-12-15T05:06:37.204Z,-7.06
2022-12-15T05:07:37.171Z,-7.08
2022-12-15T05:08:37.202Z,-7.06
2022-12-15T05:09:37.177Z,-7.09
2022-12-15T05:10:37.277Z,-7.05
2022-12-15T05:11:37.108Z,-7.09
2022-12-15T05:12:37.107Z,-7.10
2022-12-15T05:13:37.121Z,-7.13
2022-12-15T05:14:37.070Z,-7.12
2022-12-15T05:15:37.127Z,-7.12
2022-12-15T05:16:37.125Z,-7.20
2022-12-15T05:17:41.443Z,-7.16
2022-12-15T05:18:37.015Z,-7.12
2022-12-15T05:19:37.055Z,-7.03
2022-12-15T05:20:36.997Z,-6.99
2022-12-15T05:21:37.076Z,-6.90
2022-12-15T05:22:36.983Z,-6.77
2022-12-15T05:23:36.987Z,-6.73
2022-12-15T05:24:36.961Z,-6.70
2022-12-15T05:25:37.073Z,-6.71
2022-12-15T05:26:36.923Z,-6.71
2022-12-15T05:27:36.934Z,-6.71
2022-12-15T05:28:36.881Z,-6.73
2022-12-15T05:29:36.977Z,-6.73
2022-12-15T05:30:36.942Z,-6.76
2022-12-15T05:31:36.970Z,-6.76
2022-12-15T05:32:36.847Z,-6.82
2022-12-15T05:33:36.842Z,-6.85
2022-12-15T05:34:36.860Z,-6.85
2022-12-15T05:35:36.825Z,-6.87
2022-12-15T05:36:36.864Z,-6.87
2022-12-15T05:37:36.779Z,-6.84
2022-12-15T05:38:36.771Z,-6.85
2022-12-15T05:39:36.804Z,-6.90
2022-12-15T05:40:36.796Z,-6.88
2022-12-15T05:41:36.732Z,-6.91
2022-12-15T05:42:36.710Z,-6.94
2022-12-15T05:43:35.893Z,-6.97
2022-12-15T05:44:36.720Z,-6.94
2022-12-15T05:45:36.738Z,-6.92
2022-12-15T05:46:36.811Z,-6.91
2022-12-15T05:47:36.652Z,-6.92
2022-12-15T05:48:36.651Z,-6.90
2022-12-15T05:49:36.681Z,-6.90
2022-12-15T05:50:36.602Z,-6.90
2022-12-15T05:51:36.594Z,-6.87
2022-12-15T05:52:36.583Z,-6.90
2022-12-15T05:53:36.588Z,-6.91
2022-12-15T05:54:36.576Z,-6.94
2022-12-15T05:55:36.689Z,-6.91
2022-12-15T05:56:36.541Z,-6.94
2022-12-15T05:57:36.521Z,-6.94
2022-12-15T05:58:40.040Z,-6.95
2022-12-15T05:59:36.513Z,-6.94
2022-12-15T06:00:36.474Z,-6.95
2022-12-15T06:01:36.495Z,-6.95
2022-12-15T06:02:36.509Z,-6.95
2022-12-15T06:03:36.433Z,-6.94
2022-12-15T06:04:36.494Z,-6.97
2022-12-15T06:05:36.476Z,-6.99
2022-12-15T06:06:36.452Z,-7.00
2022-12-15T06:07:36.422Z,-6.97
2022-12-15T06:08:36.377Z,-7.03
2022-12-15T06:09:36.374Z,-6.97
2022-12-15T06:10:36.386Z,-7.00
2022-12-15T06:11:36.337Z,-6.97
2022-12-15T06:12:36.311Z,-6.99
2022-12-15T06:13:36.379Z,-6.99
2022-12-15T06:14:36.299Z,-7.00
2022-12-15T06:15:36.267Z,-6.99
2022-12-15T06:16:40.975Z,-6.99
2022-12-15T06:17:36.265Z,-6.97
2022-12-15T06:18:36.245Z,-6.95
2022-12-15T06:19:36.240Z,-6.95
2022-12-15T06:20:36.207Z,-6.95
2022-12-15T06:21:36.222Z,-6.97
2022-12-15T06:22:36.223Z,-6.95
2022-12-15T06:23:36.186Z,-6.99
2022-12-15T06:24:37.906Z,-6.95
2022-12-15T06:25:36.177Z,-6.97
2022-12-15T06:26:36.127Z,-6.92
2022-12-15T06:27:36.111Z,-6.92
2022-12-15T06:28:36.115Z,-6.91
2022-12-15T06:29:36.110Z,-6.88
2022-12-15T06:30:36.095Z,-6.82
2022-12-15T06:31:36.183Z,-6.81
2022-12-15T06:32:36.093Z,-6.77
2022-12-15T06:33:36.076Z,-6.76
2022-12-15T06:34:36.039Z,-6.76
2022-12-15T06:35:36.073Z,-6.79
2022-12-15T06:36:36.116Z,-6.85
2022-12-15T06:37:36.010Z,-6.87
2022-12-15T06:38:36.014Z,-6.88
2022-12-15T06:39:36.011Z,-6.90
2022-12-15T06:40:38.261Z,-6.92
2022-12-15T06:41:35.962Z,-6.95
2022-12-15T06:42:35.933Z,-6.85
2022-12-15T06:43:35.927Z,-6.73
2022-12-15T06:44:35.905Z,-6.69
2022-12-15T06:45:35.894Z,-6.61
2022-12-15T06:46:35.970Z,-6.55
2022-12-15T06:47:35.884Z,-6.54
2022-12-15T06:48:35.870Z,-6.52
2022-12-15T06:49:35.877Z,-6.52
2022-12-15T06:50:35.905Z,-6.50
2022-12-15T06:51:35.852Z,-6.47
2022-12-15T06:52:35.791Z,-6.47
2022-12-15T06:53:35.787Z,-6.48
2022-12-15T06:54:35.778Z,-6.54
2022-12-15T06:55:35.761Z,-6.52
2022-12-15T06:56:35.750Z,-6.59
2022-12-15T06:57:35.732Z,-6.63
2022-12-15T06:58:35.738Z,-6.63
2022-12-15T06:59:35.705Z,-6.69
2022-12-15T07:00:35.694Z,-6.71
2022-12-15T07:01:35.976Z,-6.73
2022-12-15T07:02:35.881Z,-6.74
2022-12-15T07:03:36.300Z,-6.79
2022-12-15T07:04:35.641Z,-6.79
2022-12-15T07:05:35.645Z,-6.82
2022-12-15T07:06:35.607Z,-6.79
2022-12-15T07:07:35.612Z,-6.76
2022-12-15T07:08:41.307Z,-6.70
2022-12-15T07:09:35.624Z,-6.67
2022-12-15T07:10:35.576Z,-6.67
2022-12-15T07:11:35.587Z,-6.64
2022-12-15T07:12:35.578Z,-6.63
2022-12-15T07:13:35.612Z,-6.63
2022-12-15T07:14:35.542Z,-6.61
2022-12-15T07:15:35.542Z,-6.63
2022-12-15T07:16:35.624Z,-6.63
2022-12-15T07:17:35.487Z,-6.64
2022-12-15T07:18:35.676Z,-6.66
2022-12-15T07:21:43.573Z,-6.71
2022-12-15T07:22:44.552Z,-6.76
2022-12-15T07:24:00.729Z,-6.74
2022-12-15T07:24:44.555Z,-6.74
2022-12-15T07:25:44.547Z,-6.77
2022-12-15T07:26:45.696Z,-6.76
2022-12-15T07:28:05.753Z,-6.74
2022-12-15T07:28:44.479Z,-6.77
2022-12-15T07:30:07.803Z,-6.77
2022-12-15T07:30:44.481Z,-6.74
2022-12-15T07:31:44.490Z,-6.77
2022-12-15T07:32:44.420Z,-6.77
2022-12-15T07:33:44.422Z,-6.79
2022-12-15T07:34:44.454Z,-6.77
2022-12-15T07:35:44.414Z,-6.74
2022-12-15T07:36:51.854Z,-6.73
2022-12-15T07:37:44.367Z,-6.74
2022-12-15T07:38:44.348Z,-6.73
2022-12-15T07:39:44.353Z,-6.74
2022-12-15T07:40:44.361Z,-6.76
2022-12-15T07:41:44.310Z,-6.76
2022-12-15T07:42:44.304Z,-6.73
2022-12-15T07:43:44.287Z,-6.76
2022-12-15T07:44:44.285Z,-6.81
2022-12-15T07:45:49.714Z,-6.79
2022-12-15T07:46:44.265Z,-6.85
2022-12-15T07:47:44.238Z,-6.84
2022-12-15T07:48:44.247Z,-6.82
2022-12-15T07:49:44.217Z,-6.82
2022-12-15T07:50:44.260Z,-6.81
2022-12-15T07:51:44.192Z,-6.79
2022-12-15T07:52:44.190Z,-6.79
2022-12-15T07:53:44.163Z,-6.81
2022-12-15T07:54:44.203Z,-6.77
2022-12-15T07:56:06.379Z,-6.77
2022-12-15T07:56:44.133Z,-6.76
2022-12-15T07:57:44.139Z,-6.74
2022-12-15T07:58:44.130Z,-6.73
2022-12-15T07:59:44.094Z,-6.71
2022-12-15T08:00:54.648Z,-6.74
2022-12-15T08:02:06.507Z,-6.71
2022-12-15T08:02:44.311Z,-6.71
2022-12-15T08:03:44.136Z,-6.70
2022-12-15T08:15:02.190Z,-6.37
2022-12-15T08:16:11.098Z,-6.37
2022-12-15T08:17:03.221Z,-6.34
2022-12-15T08:30:30.280Z,-6.01
2022-12-15T08:31:31.328Z,-6.00
2022-12-15T08:32:31.226Z,-5.95
2022-12-15T08:33:31.656Z,-5.94
2022-12-15T08:36:50.264Z,-5.94
2022-12-15T08:37:53.353Z,-5.91
2022-12-15T08:38:51.182Z,-5.87
2022-12-15T08:46:28.117Z,-5.63
2022-12-15T08:47:05.211Z,-5.63
2022-12-15T08:48:05.143Z,-5.59
2022-12-15T09:17:14.902Z,-4.65
2022-12-15T09:17:56.411Z,-4.65
2022-12-15T09:18:58.468Z,-4.59
2022-12-15T09:19:56.398Z,-4.55
2022-12-15T09:32:32.440Z,-4.15
2022-12-15T09:33:34.029Z,-4.14
2022-12-15T09:34:33.427Z,-4.08
2022-12-15T09:35:33.383Z,-4.07
2022-12-15T09:36:33.372Z,-4.05
2022-12-15T09:37:33.413Z,-4.01
2022-12-15T09:38:33.350Z,-4.04
2022-12-15T09:39:33.335Z,-4.02
2022-12-15T09:40:33.341Z,-3.93
2022-12-15T09:41:33.331Z,-3.84
2022-12-15T09:42:33.333Z,-3.81
2022-12-15T09:43:35.193Z,-3.72
2022-12-15T09:44:33.379Z,-3.68
2022-12-15T09:45:33.260Z,-3.67
2022-12-15T09:46:33.352Z,-3.56
2022-12-15T09:47:33.241Z,-3.47
2022-12-15T09:48:33.218Z,-3.43
2022-12-15T09:49:33.266Z,-3.33
2022-12-15T09:50:33.206Z,-3.28
2022-12-15T09:51:33.261Z,-3.28
2022-12-15T09:52:33.236Z,-3.23
2022-12-15T09:53:56.905Z,-3.17
2022-12-15T09:54:33.162Z,-3.14
2022-12-15T09:55:33.219Z,-3.10
2022-12-15T09:56:38.768Z,-3.13
2022-12-15T09:57:33.094Z,-3.07
2022-12-15T09:58:33.115Z,-3.07
2022-12-15T09:59:56.222Z,-3.02
2022-12-15T10:00:33.112Z,-3.00
2022-12-15T10:01:33.074Z,-2.94
2022-12-15T10:02:33.113Z,-2.92
2022-12-15T10:03:33.490Z,-2.90
2022-12-15T10:04:33.105Z,-2.87
2022-12-15T10:05:57.568Z,-2.86
2022-12-15T10:06:33.596Z,-2.81
2022-12-15T10:07:32.968Z,-2.78
2022-12-15T10:08:33.010Z,-2.79
2022-12-15T10:09:32.951Z,-2.79
2022-12-15T10:10:32.943Z,-2.78
2022-12-15T10:11:33.023Z,-2.75
2022-12-15T10:12:32.910Z,-2.72
2022-12-15T10:13:33.371Z,-2.74
2022-12-15T10:14:32.934Z,-2.71
2022-12-15T10:15:32.933Z,-2.68
2022-12-15T10:16:33.015Z,-2.60
2022-12-15T10:17:32.838Z,-2.56
2022-12-15T10:18:32.835Z,-2.50
2022-12-15T10:19:32.899Z,-2.47
2022-12-15T10:20:32.887Z,-2.43
2022-12-15T10:21:32.797Z,-2.38
2022-12-15T10:22:32.807Z,-2.38
2022-12-15T10:23:33.190Z,-2.38
2022-12-15T11:16:05.130Z,-1.09
2022-12-15T11:17:06.130Z,-1.07
2022-12-15T11:18:06.120Z,-1.05
2022-12-15T11:19:06.097Z,-1.07
2022-12-15T11:20:06.077Z,-1.05
2022-12-15T11:21:06.071Z,-0.99
2022-12-15T11:22:06.022Z,-0.99
2022-12-15T11:23:06.027Z,-0.99
2022-12-15T11:24:06.088Z,-0.94
2022-12-15T11:25:05.981Z,-0.89
2022-12-15T11:26:07.156Z,-0.89
2022-12-15T11:27:05.953Z,-0.84
2022-12-15T11:28:06.015Z,-0.78
2022-12-15T11:29:05.934Z,-0.72
2022-12-15T11:30:05.949Z,-0.66
2022-12-15T11:31:05.950Z,-0.62
2022-12-15T11:32:07.487Z,-0.55
2022-12-15T11:33:05.889Z,-0.54
2022-12-15T11:34:05.887Z,-0.50
2022-12-15T11:35:05.871Z,-0.42
2022-12-15T11:36:05.850Z,-0.36
2022-12-15T11:37:05.837Z,-0.30
2022-12-15T11:38:05.871Z,-0.27
2022-12-15T11:39:05.864Z,-0.24
2022-12-15T11:40:05.848Z,-0.26
2022-12-15T11:41:05.812Z,-0.23
2022-12-15T11:42:05.821Z,-0.22
2022-12-15T11:43:05.770Z,-0.18
2022-12-15T11:44:06.647Z,-0.15
2022-12-15T11:45:05.758Z,-0.13
2022-12-15T11:46:05.757Z,-0.13
2022-12-15T11:47:05.755Z,-0.09
2022-12-15T11:48:05.765Z,-0.06
2022-12-15T11:49:05.675Z,-0.05
2022-12-15T11:50:05.655Z,0.02
2022-12-15T11:51:05.733Z,0.02
2022-12-15T11:52:05.686Z,0.09
2022-12-15T11:53:05.611Z,0.09
2022-12-15T11:54:05.596Z,0.13
2022-12-15T11:55:05.603Z,0.24
2022-12-15T11:56:05.611Z,0.28
2022-12-15T11:57:05.572Z,0.31
2022-12-15T11:58:05.548Z,0.34
2022-12-15T11:59:05.535Z,0.38
2022-12-15T12:00:05.527Z,0.39
2022-12-15T12:01:05.500Z,0.43
2022-12-15T12:02:05.596Z,0.48
2022-12-15T12:03:05.541Z,0.49
2022-12-15T12:04:05.528Z,0.53
2022-12-15T12:05:05.455Z,0.58
2022-12-15T12:06:05.480Z,0.61
2022-12-15T12:07:05.434Z,0.62
2022-12-15T12:08:05.448Z,0.60
2022-12-15T12:09:05.459Z,0.62
2022-12-15T12:10:05.432Z,0.65
2022-12-15T12:11:05.499Z,0.68
2022-12-15T12:12:05.351Z,0.72
2022-12-15T12:13:07.764Z,0.80
2022-12-15T12:14:09.707Z,0.83
2022-12-15T12:15:05.371Z,0.82
2022-12-15T12:16:05.316Z,0.82
2022-12-15T12:17:05.337Z,0.78
2022-12-15T12:18:05.327Z,0.75
2022-12-15T12:19:05.356Z,0.71
2022-12-15T12:20:11.197Z,0.70
2022-12-15T12:21:05.231Z,0.72
2022-12-15T12:22:05.304Z,0.72
2022-12-15T12:23:05.254Z,0.78
2022-12-15T12:24:05.267Z,0.78
2022-12-15T12:25:05.180Z,0.82
2022-12-15T12:26:05.180Z,0.79
2022-12-15T12:27:05.228Z,0.80
2022-12-15T12:28:06.213Z,0.76
2022-12-15T12:29:05.204Z,0.79
2022-12-15T12:30:05.168Z,0.80
2022-12-15T12:31:05.149Z,0.82
2022-12-15T12:32:05.505Z,0.88
2022-12-15T12:33:05.176Z,0.89
2022-12-15T12:34:05.079Z,0.92
2022-12-15T12:35:30.722Z,0.94
2022-12-15T12:36:05.046Z,0.92
2022-12-15T12:37:05.031Z,0.92
2022-12-15T12:38:05.271Z,0.88
2022-12-15T12:39:05.041Z,0.88
2022-12-15T12:40:05.008Z,0.90
2022-12-15T12:41:04.999Z,0.88
2022-12-15T12:42:05.020Z,0.89
2022-12-15T12:43:08.676Z,0.86
2022-12-15T12:44:04.969Z,0.86
2022-12-15T12:45:04.928Z,0.85
2022-12-15T12:46:04.957Z,0.86
2022-12-15T12:47:04.898Z,0.88
2022-12-15T12:48:04.936Z,0.89
2022-12-15T12:49:04.880Z,0.89
2022-12-15T12:50:04.869Z,0.90
2022-12-15T12:51:04.855Z,0.92
2022-12-15T12:52:04.845Z,0.94
2022-12-15T12:53:04.851Z,0.94
2022-12-15T12:54:04.827Z,0.98
2022-12-15T12:55:08.108Z,1.01
2022-12-15T12:56:04.843Z,1.04
2022-12-15T12:57:04.832Z,1.10
2022-12-15T12:58:04.787Z,1.10
2022-12-15T12:59:04.825Z,1.14
2022-12-15T13:00:04.782Z,1.12
2022-12-15T13:01:04.894Z,1.15
2022-12-15T13:02:04.858Z,1.18
2022-12-15T13:03:04.717Z,1.15
2022-12-15T13:04:04.701Z,1.15
2022-12-15T13:05:04.674Z,1.15
2022-12-15T13:06:04.661Z,1.14
2022-12-15T13:07:08.857Z,1.12
2022-12-15T13:08:04.647Z,1.10
2022-12-15T13:09:04.643Z,1.08
2022-12-15T13:10:04.649Z,1.07
2022-12-15T13:11:04.627Z,1.03
2022-12-15T13:12:20.815Z,0.98
2022-12-15T13:13:04.599Z,1.03
2022-12-15T13:14:04.538Z,1.03
2022-12-15T13:15:04.546Z,1.04
2022-12-15T13:16:04.569Z,1.04
2022-12-15T13:18:04.525Z,1.08
2022-12-15T13:19:04.497Z,1.07
2022-12-15T13:20:04.507Z,1.07
2022-12-15T13:21:04.475Z,1.06
2022-12-15T13:22:04.445Z,1.08
2022-12-15T13:23:04.455Z,1.04
2022-12-15T13:24:04.418Z,0.97
2022-12-15T13:25:04.403Z,0.97
2022-12-15T13:26:04.395Z,0.94
2022-12-15T13:27:04.417Z,0.90
2022-12-15T13:28:04.517Z,0.92
2022-12-15T13:29:04.340Z,0.85
2022-12-15T13:30:04.366Z,0.89
2022-12-15T13:31:06.393Z,0.85
2022-12-15T13:32:04.433Z,0.80
2022-12-15T13:33:04.290Z,0.80
2022-12-15T13:34:04.275Z,0.82
2022-12-15T13:35:04.267Z,0.80
2022-12-15T13:36:04.261Z,0.80
2022-12-15T13:37:04.285Z,0.82
2022-12-15T13:38:04.225Z,0.82
2022-12-15T13:39:04.254Z,0.76
2022-12-15T13:40:04.263Z,0.76
2022-12-15T13:41:04.171Z,0.71
2022-12-15T13:43:04.158Z,0.71
2022-12-15T13:44:04.146Z,0.70
2022-12-15T13:45:04.142Z,0.68
2022-12-15T13:46:04.227Z,0.65
2022-12-15T13:47:04.129Z,0.64
2022-12-15T13:48:04.125Z,0.61
2022-12-15T13:49:04.118Z,0.58
2022-12-15T13:50:04.128Z,0.57
2022-12-15T13:51:04.050Z,0.58
2022-12-15T13:52:04.039Z,0.52
2022-12-15T15:03:06.549Z,-2.35
2022-12-15T15:03:07.668Z,0.53
2022-12-15T15:03:25.440Z,-0.95
2022-12-15T15:04:25.228Z,-0.97
2022-12-15T15:05:25.288Z,-1.03
2022-12-15T15:06:25.219Z,-1.07
2022-12-15T15:07:25.250Z,-1.09
2022-12-15T15:08:25.254Z,-1.12
2022-12-15T15:09:25.144Z,-1.13
2022-12-15T15:10:25.153Z,-1.17
2022-12-15T15:11:25.138Z,-1.15
2022-12-15T15:12:25.198Z,-1.18
2022-12-15T15:13:25.131Z,-1.09
2022-12-15T15:14:25.110Z,-1.06
2022-12-15T15:15:25.066Z,-1.09
2022-12-15T15:16:25.248Z,-1.12
2022-12-15T15:17:25.086Z,-1.18
2022-12-15T15:18:25.035Z,-1.25
2022-12-15T15:19:25.049Z,-1.28
2022-12-15T15:20:25.088Z,-1.30
2022-12-15T15:21:25.007Z,-1.33
2022-12-15T15:22:24.987Z,-1.35
2022-12-15T15:23:24.987Z,-1.36
2022-12-15T15:24:24.955Z,-1.42
2022-12-15T15:25:24.938Z,-1.45
2022-12-15T15:26:24.968Z,-1.48
2022-12-15T15:27:24.999Z,-1.54
2022-12-15T15:28:24.973Z,-1.54
2022-12-15T15:29:25.081Z,-1.53
2022-12-15T15:30:24.908Z,-1.59
2022-12-15T15:31:24.946Z,-1.60
2022-12-15T15:32:24.921Z,-1.63
2022-12-15T15:33:24.894Z,-1.67
2022-12-15T15:34:24.883Z,-1.69
2022-12-15T15:35:24.857Z,-1.77
2022-12-15T15:36:24.894Z,-1.80
2022-12-15T15:37:24.796Z,-1.85
2022-12-15T15:38:24.883Z,-1.88
2022-12-15T15:39:24.803Z,-1.90
2022-12-15T15:40:24.757Z,-1.92
2022-12-15T15:41:24.751Z,-1.96
2022-12-15T15:42:30.778Z,-1.96
2022-12-15T15:43:24.702Z,-2.00
2022-12-15T15:44:24.690Z,-2.00
2022-12-15T15:45:24.718Z,-2.03
2022-12-15T15:46:24.748Z,-2.05
2022-12-15T15:48:52.860Z,-2.11
2022-12-15T15:49:39.518Z,-2.06
2022-12-15T15:50:37.806Z,-2.14
2022-12-15T15:51:37.805Z,-2.16
2022-12-15T15:52:37.745Z,-2.17
2022-12-15T15:53:37.782Z,-2.18
2022-12-15T15:54:37.728Z,-2.21
2022-12-15T15:55:39.884Z,-2.23
2022-12-15T15:56:37.725Z,-2.21
2022-12-15T15:57:37.685Z,-2.17
2022-12-15T15:58:37.696Z,-2.21
2022-12-15T15:59:37.659Z,-2.20
2022-12-15T16:00:37.689Z,-2.23
2022-12-15T16:01:37.822Z,-2.28
2022-12-15T16:02:37.865Z,-2.32
2022-12-15T16:03:37.709Z,-2.35
2022-12-15T16:04:37.615Z,-2.40
2022-12-15T16:05:37.597Z,-2.42
2022-12-15T16:06:42.065Z,-2.48
2022-12-15T16:07:37.557Z,-2.50
2022-12-15T16:08:37.597Z,-2.53
2022-12-15T16:09:37.594Z,-2.51
2022-12-15T16:10:37.552Z,-2.57
2022-12-15T16:11:38.406Z,-2.53
2022-12-15T16:12:37.518Z,-2.56
2022-12-15T16:13:37.529Z,-2.58
2022-12-15T16:14:37.463Z,-2.61
2022-12-15T16:15:37.533Z,-2.63
2022-12-15T16:16:37.503Z,-2.68
2022-12-15T16:17:37.439Z,-2.66
2022-12-15T16:18:37.438Z,-2.66
2022-12-15T16:19:39.761Z,-2.68
2022-12-15T16:20:37.416Z,-2.71
2022-12-15T16:21:37.390Z,-2.71
2022-12-15T16:22:37.371Z,-2.75
2022-12-15T16:23:37.366Z,-2.78
2022-12-15T16:24:37.425Z,-2.85
2022-12-15T16:25:46.591Z,-2.82
2022-12-15T16:26:37.386Z,-2.86
2022-12-15T16:27:37.330Z,-2.85
2022-12-15T16:28:37.681Z,-2.82
2022-12-15T16:29:37.295Z,-2.85
2022-12-15T16:30:37.310Z,-2.89
2022-12-15T16:31:41.629Z,-2.89
2022-12-15T16:32:37.257Z,-2.90
2022-12-15T16:33:37.237Z,-2.87
2022-12-15T16:34:37.220Z,-2.93
2022-12-15T16:35:37.228Z,-2.92
2022-12-15T16:36:37.206Z,-2.93
2022-12-15T16:37:39.649Z,-2.94
2022-12-15T16:38:37.362Z,-2.94
2022-12-15T16:39:37.149Z,-2.94
2022-12-15T16:40:37.252Z,-2.99
2022-12-15T16:41:37.168Z,-3.00
2022-12-15T16:42:37.100Z,-3.02
2022-12-15T16:43:41.559Z,-3.04
2022-12-15T16:44:37.102Z,-3.08
2022-12-15T16:45:37.053Z,-3.04
2022-12-15T16:46:37.136Z,-3.07
2022-12-15T16:47:37.107Z,-3.08
2022-12-15T16:48:37.786Z,-3.11
2022-12-15T16:49:40.242Z,-3.13
2022-12-15T16:50:36.995Z,-3.14
2022-12-15T16:51:37.024Z,-3.18